Flight Track Log - Related Links

Times and Time Zones

All times are in EDT time to prevent confusion due to time zone crossing. See the GJS6221 flight status page for this flight to view local times or setup timezone preferences in your user account.

Time Position Orientation Groundspeed Altitude Reporting Facility
EDT Latitude Longitude Course Direction KTS MPH feet Rate Location/Type
Tue 04:23:52 PM 44.4072 -73.1258 196° South 215 247 4,400  Level Boston Center
Tue 04:24:51 PM 44.3528 -73.1514 199° South 228 262 6,800 2,380 Climbing Boston Center
Tue 04:26:00 PM 44.2399 -73.2028 191° South  Level FlightAware Approximate
Tue 04:26:51 PM 44.2044 -73.2103 191° South 289 333 11,500  Level Boston Center
Tue 04:27:51 PM 44.1189 -73.2469 197° South 318 366 14,100 2,331 Climbing Boston Center
Tue 04:28:52 PM 44.0247 -73.2861 197° South 342 394 16,200 2,150 Climbing Boston Center
Tue 04:29:00 PM 43.9409 -73.3503 196° South  Level FlightAware Approximate
Tue 04:29:51 PM 43.9267 -73.3281 197° South 356 410 18,400  Level Boston Center
Tue 04:30:51 PM 43.8306 -73.3667 196° South 366 421 20,200 1,785 Climbing Boston Center
Tue 04:31:52 PM 43.7156 -73.4139 197° South 371 427 22,000 900 Climbing Boston Center
Tue 04:32:51 PM 43.6150 -73.4553 197° South 383 441 22,000  Level Boston Center
Tue 04:33:51 PM 43.5083 -73.4936 195° South 383 441 22,000  Level Boston Center
Tue 04:34:51 PM 43.4100 -73.5375 198° South 383 441 22,000  Level Boston Center
Tue 04:35:52 PM 43.3097 -73.5756 195° South 383 441 22,000  Level Boston Center
Tue 04:36:52 PM 43.2072 -73.6194 197° South 383 441 22,000  Level Boston Center
Tue 04:37:51 PM 43.1150 -73.6575 197° South 383 441 22,000  Level Boston Center
Tue 04:38:51 PM 43.0103 -73.6978 196° South 388 447 22,000  Level Boston Center
Tue 04:39:51 PM 42.9056 -73.7411 197° South 388 447 22,000 -50 Level Boston Center
Tue 04:40:51 PM 42.8008 -73.7842 197° South 394 453 21,900 -100 Descending Boston Center
Tue 04:41:51 PM 42.6925 -73.7961 185° South 394 453 21,800 -500 Descending Boston Center
Tue 04:42:51 PM 42.5781 -73.7736 172° South 389 448 20,900 -942 Descending Boston Center
Tue 04:43:52 PM 42.4742 -73.7517 171° South 384 442 19,900 -1,050 Descending Boston Center
Tue 04:44:51 PM 42.3703 -73.7272 170° South 390 449 18,800 -950 Descending Boston Center
Tue 04:45:52 PM 42.2683 -73.7083 172° South 384 442 18,000 -397 Descending Boston Center
Tue 04:46:52 PM 42.1642 -73.6864 171° South 384 442 18,000  Level Boston Center
Tue 04:47:51 PM 42.0603 -73.6592 169° South 384 442 18,000 -100 Level Boston Center
Tue 04:48:52 PM 41.9564 -73.6433 174° South 384 442 17,800 -645 Descending Boston Center
Tue 04:49:52 PM 41.8522 -73.6331 176° South 384 442 16,700 -1,400 Descending Boston Center
Tue 04:50:52 PM 41.7539 -73.6644 193° South 373 429 15,000 -1,563 Descending Boston Center
Tue 04:51:51 PM 41.6536 -73.7014 195° South 373 429 13,600 -1,513 Descending Boston Center
Tue 04:52:51 PM 41.5594 -73.7272 192° South 359 413 12,000 -1,537 Descending Boston Center
Tue 04:53:13 PM 41.5333 -73.7333 190° South 337 388 11,500 -1,463 Descending New York TRACON
Tue 04:54:13 PM 41.4500 -73.7667 197° South 306 352 10,000 -833 Descending New York TRACON
Tue 04:56:13 PM 41.3000 -73.7500 175° South 293 337 9,000 -567 Descending New York TRACON
Tue 04:57:13 PM 41.2333 -73.7000 151° Southeast 293 337 8,300 -843 Descending New York TRACON
Tue 04:58:14 PM 41.1667 -73.6333 143° Southeast 273 314 7,300 -992 Descending New York TRACON
Tue 04:59:14 PM 41.1000 -73.6167 169° South 275 316 6,300 -1,000 Descending New York TRACON
Tue 05:00:14 PM 41.0333 -73.6667 210° Southwest 274 315 5,300 -1,000 Descending New York TRACON
Tue 05:01:14 PM 40.9667 -73.7167 210° Southwest 258 297 4,300 -600 Descending New York TRACON
Tue 05:02:14 PM 40.9167 -73.7833 225° Southwest 271 312 4,100 -150 Descending New York TRACON
Tue 05:03:14 PM 40.9000 -73.8833 258° West 274 315 4,000 -50 Descending New York TRACON
Tue 05:04:14 PM 40.8667 -73.9500 237° Southwest 269 310 4,000  Level New York TRACON
Tue 05:05:08 PM 40.8000 -73.9833 201° Southwest 263 303 4,000  Level New York TRACON
Tue 05:06:14 PM 40.7333 -74.0333 210° Southwest 222 255 4,000 48 Level New York TRACON
Tue 05:07:14 PM 40.6833 -74.0667 207° Southwest 199 229 4,100 -500 Climbing New York TRACON
Tue 05:08:14 PM 40.6333 -74.1000 207° Southwest 200 230 3,000 -645 Descending New York TRACON
Tue 05:09:15 PM 40.5833 -74.0667 153° Southeast 188 216 2,800 -99 Descending New York TRACON
Tue 05:10:15 PM 40.6167 -74.0167 49° Northeast 167 192 2,800  Level New York TRACON

Login

Don't have an account? Register now (free) for customized features, flight alerts, and more!